x

Rochester, Ny (rprn6) Weather Station

4:00pm - Thu 20th Nov 2014 All times are CST. -6 hours from GMT.

  • Wind
    11mph, 17mph gusts
  • Air Temp 28°f
  • Sea Pressure 1012.9mb
  • Rochester, Ny
  • Rochester, Ny

More Historic Weather Station data

Upgrade to MSW Pro to gain access to the past 30 days of data for over 8000 Wavebouys and Weather Stations around the globe.

Join Pro

Comparision Forecast

View Surf forecast
   
Thu 11/20 4:00pm 11 17 mph 1012.9mb 28f
3:50pm 15 20 mph 1012.5mb 28f
3:40pm 17 21 mph 1012.5mb 28f
3:30pm 15 21 mph 1012.2mb 28f
3:20pm 15 22 mph 1012.5mb 28f
3:10pm 13 18 mph 1012.2mb 28f
3:00pm 10 23 mph 1012.2mb 28f
2:50pm 15 22 mph 1012.2mb 28f
2:40pm 14 18 mph 1012.2mb 28f
2:30pm 15 21 mph 1011.9mb 29f
2:20pm 16 22 mph 1011.9mb 29f
2:10pm 16 22 mph 1011.5mb 29f
2:00pm 15 20 mph 1011.5mb 29f
1:50pm 14 18 mph 1011.5mb 29f
1:40pm 16 23 mph 1011.5mb 29f
1:30pm 10 20 mph 1011.5mb 29f
1:20pm 17 23 mph 1011.5mb 29f
1:10pm 18 25 mph 1011.2mb 30f
1:00pm 16 25 mph 1011.2mb 30f
12:50pm 15 30 mph 1011.2mb 30f
12:40pm 20 30 mph 1011.5mb 30f
12:30pm 20 28 mph 1011.2mb 30f
12:20pm 18 29 mph 1011.2mb 30f
12:10pm 18 28 mph 1011.2mb 30f
12:00pm 16 26 mph 1011.2mb 30f
11:50am 23 31 mph 1010.8mb 30f
11:40am 18 28 mph 1010.8mb 30f
11:30am 23 34 mph 1010.8mb 30f
11:20am 23 31 mph 1010.8mb 30f
11:10am 17 29 mph 1010.8mb 30f
11:00am 20 28 mph 1010.8mb 30f
10:50am 23 32 mph 1011.2mb 29f
10:40am 21 31 mph 1010.8mb 29f
10:30am 17 25 mph 1011.2mb 29f
10:20am 17 32 mph 1011.2mb 29f
10:10am 24 33 mph 1011.2mb 29f
10:00am 23 33 mph 1011.2mb 29f
9:50am 21 30 mph 1011.2mb 29f
9:40am 14 25 mph 1011.5mb 29f
9:30am 18 29 mph 1011.2mb 29f
9:20am 16 29 mph 1011.2mb 29f
9:10am 17 24 mph 1011.5mb 29f
9:00am 16 23 mph 1011.5mb 28f
8:50am 17 26 mph 1011.5mb 28f
8:40am 13 21 mph 1011.5mb 28f
8:30am 14 22 mph 1011.2mb 28f
8:20am 14 23 mph 1011.2mb 28f
8:10am 16 22 mph 1011.2mb 28f
8:00am 15 22 mph 1011.2mb 28f
7:50am 17 24 mph 1011.2mb 28f
7:40am 14 24 mph 1010.8mb 28f
7:30am 16 24 mph 1010.8mb 28f
7:20am 18 26 mph 1010.5mb 28f
7:10am 16 26 mph 1010.8mb 28f
7:00am 16 29 mph 1010.5mb 28f
6:50am 13 26 mph 1010.5mb 28f
6:40am 16 26 mph 1010.5mb 28f
6:30am 17 26 mph 1010.5mb 28f
6:20am 17 24 mph 1010.2mb 28f
6:10am 20 24 mph 1010.2mb 28f
6:00am 16 22 mph 1010.5mb 28f
5:50am 17 26 mph 1010.2mb 28f
5:40am 20 24 mph 1010.2mb 28f
5:30am 20
mph
1010.2mb 27f
5:20am 75
mph
1009.8mb 28f
5:10am 8 13 mph 1009.8mb 28f
5:00am 7 11 mph 1009.5mb 28f
4:50am 5 8 mph 1009.5mb 28f
4:40am 8 13 mph 1009.5mb 28f
4:30am 10 16 mph 1009.5mb 28f
4:20am 13 25 mph 1009.5mb 28f
4:10am 14 20 mph 1009.5mb 28f
4:00am 11 20 mph 1009.5mb 28f
3:50am 15 21 mph 1009.5mb 28f
3:40am 14 17 mph 1009.5mb 28f
3:30am 13 20 mph 1009.1mb 28f
3:20am 13 18 mph 1009.1mb 29f
3:10am 11 15 mph 1009.1mb 30f
3:00am 13 18 mph 1009.1mb 31f
2:50am 10 16 mph 1009.1mb 31f
2:40am 10 14 mph 1009.1mb 31f
2:30am 9 13 mph 1009.5mb 31f
2:20am 9 16 mph 1009.5mb 31f
2:10am 10 15 mph 1009.5mb 31f
2:00am 11 15 mph 1009.5mb 31f
1:50am 10 18 mph 1009.5mb 31f
1:40am 13 22 mph 1009.5mb 31f
1:30am 14 17 mph 1009.5mb 31f
1:20am 11 17 mph 1009.5mb 31f
1:10am 16 22 mph 1009.5mb 31f
1:00am 17 25 mph 1009.1mb 32f
12:50am 15 22 mph 1008.8mb 32f
12:40am 16 21 mph 1008.8mb 32f
12:30am 14 21 mph 1008.8mb 31f
12:20am 14 17 mph 1008.8mb 31f
12:10am 9 14 mph 1008.8mb 31f
12:00am 10 15 mph 1008.8mb 31f
Wed 11/19 11:50pm 8 14 mph 1008.5mb 30f
11:40pm 9 15 mph 1008.5mb 30f
11:30pm 10 17 mph 1008.8mb 30f
11:20pm 9 25 mph 1008.8mb 31f
11:10pm 14 21 mph 1008.8mb 31f
11:00pm 13 15 mph 1008.8mb 31f
10:50pm 10 18 mph 1008.5mb 31f
10:40pm 11 23 mph 1008.5mb 32f
10:30pm 13 25 mph 1008.1mb 32f
10:20pm 20 25 mph 1008.1mb 32f
10:10pm 17 24 mph 1008.1mb 32f
10:00pm 15 28 mph 1008.1mb 31f
9:50pm 17 26 mph 1007.8mb 31f
9:40pm 20 29 mph 1008.1mb 31f
9:30pm 18 24 mph 1008.1mb 31f
9:20pm 18 28 mph 1008.5mb 31f
9:10pm 17 26 mph 1008.8mb 30f
9:00pm 16 25 mph 1009.1mb 30f
8:50pm 15 24 mph 1009.1mb 30f
8:40pm 16 22 mph 1009.5mb 29f
8:30pm 16 23 mph 1009.8mb 29f
8:20pm 17 24 mph 1009.8mb 29f
8:10pm 15 23 mph 1009.8mb 28f
8:00pm 13 18 mph 1010.2mb 28f
7:50pm 15 18 mph 1010.5mb 27f
7:40pm 13 16 mph 1010.8mb 27f
7:30pm 13 16 mph 1010.8mb 26f
7:20pm 13 17 mph 1011.2mb 26f
7:10pm 11 16 mph 1011.5mb 26f
7:00pm 11 15 mph 1011.5mb 26f
6:50pm 13 17 mph 1011.5mb 25f
6:40pm 13 16 mph 1011.9mb 25f
6:30pm 13 17 mph 1011.9mb 25f
6:20pm 13 16 mph 1012.2mb 24f
6:10pm 10 15 mph 1012.5mb 24f
6:00pm 11 16 mph 1012.5mb 24f
5:50pm 11 15 mph 1012.9mb 24f
5:40pm 13 16 mph 1013.2mb 24f
5:30pm 13 15 mph 1013.2mb 24f
5:20pm 10 13 mph 1013.5mb 24f
5:10pm 9 11 mph 1013.5mb 23f
5:00pm 9 10 mph 1013.9mb 23f
4:50pm 8 11 mph 1013.9mb 23f
4:40pm 9 14 mph 1013.9mb 23f
4:30pm 11 18 mph 1013.9mb 23f
4:20pm 15 18 mph 1014.6mb 24f
4:10pm 14 18 mph 1014.2mb 26f
4:00pm 17 23 mph 1014.2mb 26f
3:50pm 20 24 mph 1013.9mb 26f
3:40pm 16 24 mph 1014.2mb 26f
3:30pm 10 21 mph 1014.2mb 27f
3:20pm 13 16 mph 1014.2mb 26f
3:10pm 10 17 mph 1014.2mb 26f
3:00pm 13 15 mph 1014.2mb 26f
2:50pm 13 18 mph 1014.6mb 26f
2:40pm 13 18 mph 1014.9mb 26f
2:30pm 15 23 mph 1014.9mb 26f
2:20pm 13 18 mph 1015.2mb 26f
2:10pm 10 21 mph 1015.6mb 26f
2:00pm 17 24 mph 1016.3mb 26f
1:50pm 16 23 mph 1016.3mb 26f
1:40pm 17 23 mph 1016.3mb 26f
1:30pm 16 23 mph 1016.6mb 25f
1:20pm 17 22 mph 1016.9mb 25f
1:10pm 17 23 mph 1016.9mb 25f
1:00pm 14 24 mph 1017.3mb 25f
12:50pm 15 22 mph 1017.9mb 25f
12:40pm 14 25 mph 1017.9mb 24f
12:30pm 16 24 mph 1017.9mb 24f
12:20pm 17 26 mph 1018.3mb 24f
12:10pm 15 24 mph 1018.3mb 24f
12:00pm 17 24 mph 1018.6mb 24f
11:50am 16 23 mph 1019mb 24f
11:40am 18 25 mph 1019mb 24f
11:30am 21 24 mph 1019mb 24f
11:20am 15 25 mph 1019.3mb 23f
11:10am 17 24 mph 1019.3mb 23f
11:00am 14 23 mph 1019.3mb 23f
10:50am 18 26 mph 1019.6mb 22f
10:40am 17 24 mph 1019.6mb 22f
10:30am 17 26 mph 1020mb 22f
10:20am 18 23 mph 1020.3mb 21f
10:10am 17 24 mph 1020.3mb 21f
10:00am 15 21 mph 1020.7mb 22f
9:50am 17 21 mph 1020.7mb 21f
9:40am 14 22 mph 1021mb 21f
9:30am 15 20 mph 1021.3mb 21f
9:20am 11 20 mph 1021mb 21f
9:10am 14 20 mph 1021.3mb 21f
9:00am 15 25 mph 1021.3mb 20f
8:50am 17 22 mph 1021.7mb 20f
8:40am 17 22 mph 1021.7mb 21f
8:30am 13 23 mph 1021.7mb 20f
8:20am 15 23 mph 1021.7mb 20f
8:10am 18 22 mph 1021.7mb 20f
8:00am 16 25 mph 1021.7mb 20f
7:50am 16 23 mph 1021.3mb 20f
7:40am 17 21 mph 1021.7mb 19f
7:30am 13 21 mph 1021.3mb 19f
7:20am 16 22 mph 1021.3mb 19f
7:10am 16 23 mph 1021.3mb 19f
7:00am 15 23 mph 1021.3mb 19f
6:50am 18 25 mph 1021mb 19f
6:40am 16 23 mph 1021mb 18f
6:30am 16 23 mph 1021mb 18f
6:20am 17 23 mph 1020.7mb 18f
6:10am 17 22 mph 1020.7mb 18f
6:00am 16 21 mph 1020.3mb 18f
5:50am 15 21 mph 1020.3mb 18f
5:40am 14 24 mph 1020mb 18f
5:30am 16 21 mph 1019.6mb 18f
5:20am 14 18 mph 1019.6mb 18f
5:10am 13 17 mph 1019.6mb 19f
5:00am 15 18 mph 1019.3mb 19f
4:50am 14 20 mph 1019.3mb 19f
4:40am 15 22 mph 1019.3mb 19f
4:30am 14 18 mph 1019.3mb 19f
4:20am 15 18 mph 1019.3mb 18f
4:10am 11 15 mph 1019.3mb 18f
4:00am 11 21 mph 1019.3mb 19f
3:50am 11 20 mph 1019.3mb 19f
3:40am 14 20 mph 1019.3mb 19f
3:30am 13 16 mph 1019.3mb 19f
3:20am 15 20 mph 1019.3mb 19f
3:10am 14 20 mph 1019.3mb 19f
3:00am 13 20 mph 1019mb 19f
2:50am 15 20 mph 1019mb 19f
2:40am 11 21 mph 1019mb 19f
2:30am 14 17 mph 1018.6mb 19f
2:20am 15 20 mph 1018.6mb 19f
2:10am 14 17 mph 1018.6mb 19f
2:00am 14 18 mph 1018.6mb 19f
1:50am 13 20 mph 1018.6mb 20f
1:40am 13 18 mph 1018.3mb 20f
1:30am 13 23 mph 1017.9mb 20f
1:20am 15 22 mph 1017.9mb 20f
1:10am 16 22 mph 1017.9mb 20f
1:00am 17 23 mph 1017.6mb 20f
12:50am 17 23 mph 1017.3mb 20f
12:40am 16 23 mph 1017.3mb 20f
12:30am 17 22 mph 1016.9mb 21f
12:20am 17 22 mph 1016.9mb 22f
12:10am 16 28 mph 1016.6mb 22f
12:00am 17 28 mph 1016.3mb 22f
Tue 11/18 11:50pm 21 30 mph 1016.6mb 22f
11:40pm 22 26 mph 1016.3mb 22f
11:30pm 20 31 mph 1016.3mb 22f
11:20pm 24 30 mph 1015.9mb 22f
11:10pm 22 29 mph 1015.9mb 22f
11:00pm 21 29 mph 1015.6mb 22f
10:50pm 24 36 mph 1015.6mb 22f
10:40pm 20 28 mph 1015.2mb 22f
10:30pm 17 28 mph 1015.6mb 22f
10:20pm 21 26 mph 1015.2mb 22f
10:10pm 22 31 mph 1015.2mb 22f
10:00pm 21 28 mph 1014.9mb 22f
9:50pm 20 29 mph 1014.6mb 22f
9:40pm 20 29 mph 1014.6mb 22f
9:30pm 18 34 mph 1014.2mb 22f
9:20pm 24 32 mph 1014.2mb 22f
9:10pm 18 31 mph 1013.9mb 22f
9:00pm 21 29 mph 1014.2mb 22f
8:50pm 21 31 mph 1014.2mb 22f
8:40pm 28 34 mph 1013.5mb 22f
8:30pm 24 31 mph 1013.5mb 22f
8:20pm 23 34 mph 1013.5mb 22f
8:10pm 22 34 mph 1013.2mb 22f
8:00pm 21 29 mph 1013.2mb 22f
7:50pm 22 34 mph 1012.9mb 22f
7:40pm 23 37 mph 1012.9mb 22f
7:30pm 21 31 mph 1012.5mb 22f
7:20pm 24 36 mph 1012.9mb 21f
7:10pm 24 32 mph 1012.9mb 21f
7:00pm 20 31 mph 1012.9mb 21f
6:50pm 23 33 mph 1012.5mb 21f
6:40pm 21 33 mph 1012.5mb 21f
6:30pm 22 30 mph 1012.5mb 21f
6:20pm 23 32 mph 1012.5mb 21f
6:10pm 24 33 mph 1012.2mb 21f
6:00pm 24 36 mph 1012.2mb 21f
5:50pm 24 38 mph 1012.2mb 21f
5:40pm 23 32 mph 1011.9mb 21f
5:30pm 24 37 mph 1011.9mb 21f
5:20pm 25 36 mph 1011.9mb 22f
5:10pm 24 36 mph 1011.2mb 22f
5:00pm 25 33 mph 1011.5mb 22f
4:50pm 23 32 mph 1011.9mb 22f
4:40pm 24 32 mph 1011.2mb 22f
4:30pm 22 31 mph 1011.5mb 22f
4:20pm 21 30 mph 1011.5mb 22f
4:10pm 24 33 mph 1011.2mb 22f
4:00pm 22 30 mph 1011.2mb 22f
3:50pm 22 32 mph 1010.8mb 22f
3:40pm 26 36 mph 1010.8mb 22f
3:30pm 22 33 mph 1010.8mb 23f
3:20pm 25 33 mph 1010.8mb 23f
3:10pm 20 31 mph 1010.8mb 23f
3:00pm 20 31 mph 1010.8mb 23f
2:50pm 18 30 mph 1010.8mb 23f
2:40pm 21 28 mph 1010.8mb 23f
2:30pm 20 30 mph 1010.8mb 23f
2:20pm 20 30 mph 1010.8mb 23f
2:10pm 21 28 mph 1010.5mb 23f
2:00pm 21 34 mph 1010.5mb 23f
1:50pm 23 30 mph 1010.5mb 24f
1:40pm 18 29 mph 1010.5mb 24f
1:30pm 22 31 mph 1010.2mb 23f
1:20pm 22 31 mph 1010.2mb 23f
1:10pm 17 28 mph 1010.2mb 24f
1:00pm 25 39 mph 1009.8mb 23f
12:50pm 24 31 mph 1009.8mb 23f
12:40pm 22 32 mph 1009.5mb 23f
12:30pm 22 34 mph 1009.8mb 23f
12:20pm 25 34 mph 1009.5mb 23f
12:10pm 26 38 mph 1009.8mb 22f
12:00pm 20 29 mph 1009.8mb 23f
11:50am 21 38 mph 1009.8mb 23f
11:40am 23 32 mph 1009.8mb 23f
11:30am 25 34 mph 1009.8mb 22f
11:20am 25 36 mph 1009.8mb 22f
11:10am 22 32 mph 1009.8mb 23f
11:00am 22 26 mph 1009.8mb 23f
10:50am 21 31 mph 1009.8mb 22f
10:40am 18 28 mph 1009.5mb 22f
10:30am 21 28 mph 1009.8mb 22f
10:20am 18 34 mph 1009.5mb 22f
10:10am 23 33 mph 1009.5mb 21f
10:00am 22 36 mph 1009.8mb 21f
9:50am 24 34 mph 1009.8mb 21f
9:40am 26 32 mph 1009.5mb 21f
9:30am 21 32 mph 1009.5mb 21f
9:20am 24 33 mph 1009.5mb 20f
9:10am 22 31 mph 1009.1mb 21f
9:00am 23 36 mph 1009.1mb 20f
8:50am 24 31 mph 1009.1mb 20f
8:40am 23 33 mph 1009.1mb 20f
8:30am 23 31 mph 1009.1mb 20f
8:20am 28 33 mph 1009.1mb 20f
8:10am 23 32 mph 1009.1mb 20f
8:00am 18 31 mph 1009.1mb 20f
7:50am 22 32 mph 1009.1mb 20f
7:40am 24 33 mph 1008.8mb 20f
7:30am 24 30 mph 1009.1mb 20f
7:20am 24 29 mph 1008.8mb 20f
7:10am 17 29 mph 1008.8mb 20f
7:00am 18 31 mph 1008.8mb 20f
6:50am 20 34 mph 1008.5mb 20f
6:40am 22 30 mph 1008.5mb 20f
6:30am 18 26 mph 1008.1mb 20f
6:20am 18 26 mph 1008.1mb 20f
6:10am 20 25 mph 1008.1mb 20f
6:00am 17 25 mph 1007.8mb 20f
5:50am 20 28 mph 1007.8mb 20f
5:40am 22 28 mph 1007.8mb 20f
5:30am 20 29 mph 1007.8mb 20f
5:20am 20 25 mph 1007.5mb 21f
5:10am 17 24 mph 1007.5mb 21f
5:00am 18 28 mph 1007.5mb 21f
4:50am 18 28 mph 1007.8mb 21f
4:40am 21 26 mph 1007.5mb 21f
4:30am 22 28 mph 1007.5mb 21f
4:20am 18 26 mph 1007.1mb 22f
4:10am 17 32 mph 1007.5mb 21f
4:00am 20 28 mph 1007.1mb 22f
3:50am 18 26 mph 1007.1mb 22f
3:40am 16 22 mph 1007.1mb 22f
3:30am 17 24 mph 1007.1mb 22f
3:20am 15 23 mph 1007.1mb 22f
3:10am 14 22 mph 1007.1mb 22f
3:00am 17 25 mph 1006.8mb 22f
2:50am 15 21 mph 1006.8mb 23f
2:40am 16 30 mph 1006.8mb 23f
2:30am 17 26 mph 1006.8mb 24f
2:20am 16 26 mph 1006.8mb 24f
2:10am 21 26 mph 1006.4mb 23f
2:00am 20 26 mph 1006.4mb 24f
1:50am 14 24 mph 1006.4mb 24f
1:40am 17 25 mph 1006.1mb 24f
1:30am 16 23 mph 1006.1mb 24f
1:20am 17 22 mph 1006.1mb 25f
1:10am 14 23 mph 1006.4mb 25f
1:00am 14 21 mph 1006.1mb 25f
12:50am 14 20 mph 1006.1mb 26f
12:40am 15 22 mph 1005.8mb 26f
12:30am 16 23 mph 1005.8mb 26f
12:20am 17 24 mph 1005.8mb 26f
12:10am 16 22 mph 1005.4mb 26f
12:00am 16 23 mph 1005.1mb 27f
Mon 11/17 11:50pm 15 18 mph 1005.4mb 27f
11:40pm 13 21 mph 1005.4mb 27f
11:30pm 14 22 mph 1005.4mb 27f
11:20pm 15 22 mph 1005.4mb 28f
11:10pm 16 24 mph 1005.1mb 28f
11:00pm 16 30 mph 1005.1mb 28f
10:50pm 18 26 mph 1004.7mb 29f
10:40pm 21 29 mph 1004.7mb 29f
10:30pm 18 24 mph 1004.7mb 30f
10:20pm 17 31 mph 1004.4mb 30f
10:10pm 22 32 mph 1004.4mb 30f
10:00pm 20 30 mph 1004.4mb 30f
9:50pm 15 25 mph 1004.1mb 30f
9:40pm 18 28 mph 1003.7mb 31f
9:30pm 17 24 mph 1003.7mb 31f
9:20pm 15 22 mph 1003.7mb 31f
9:10pm 15 24 mph 1004.1mb 31f
9:00pm 18 25 mph 1003.7mb 32f
8:50pm 18 24 mph 1003.4mb 32f
8:40pm 15 23 mph 1003.4mb 32f
8:30pm 15 23 mph 1003.4mb 33f
8:20pm 14 28 mph 1003mb 33f
8:10pm 21 29 mph 1002.7mb 34f
8:00pm 20 30 mph 1002.4mb 35f
7:50pm 20 31 mph 1002.4mb 35f
7:40pm 21 29 mph 1002.4mb 35f
7:30pm 15 23 mph 1002.4mb 35f
7:20pm 13 24 mph 1002.7mb 35f
7:10pm 14 22 mph 1002.4mb 35f
7:00pm 17 23 mph 1002.4mb 35f
6:50pm 13 22 mph 1002.4mb 35f
6:40pm 14 23 mph 1002.4mb 35f
6:30pm 16 21 mph 1002.4mb 35f
6:20pm 13 21 mph 1002.4mb 35f
6:10pm 15 20 mph 1002.4mb 35f
6:00pm 13 18 mph 1002mb 35f
5:50pm 15 21 mph 1002.4mb 36f
5:40pm 15 22 mph 1002mb 36f
5:30pm 16 23 mph 1002mb 36f
5:20pm 15 22 mph 1001.7mb 36f
5:10pm 17 23 mph 1001.7mb 36f
5:00pm 14 18 mph 1001.7mb 37f
4:50pm 13 21 mph 1001.7mb 36f
4:40pm 13 15 mph 1001.7mb 37f
4:30pm 11 16 mph 1001.7mb 36f
4:20pm 10 13 mph 1001.4mb 36f
4:10pm 10 13 mph 1001.4mb 36f
4:00pm 9 11 mph 1001.4mb 36f
3:50pm 8 11 mph 1001mb 36f
3:40pm 8 11 mph 1001.4mb 36f
3:30pm 7 9 mph 1001mb 36f
3:20pm 8 11 mph 1000.7mb 36f
3:10pm 8 11 mph 1000.7mb 36f
3:00pm 9 10 mph 1000.7mb 36f
2:50pm 8 11 mph 1000.3mb 36f
2:40pm 8 11 mph 1000.3mb 36f
2:30pm 9 10 mph 1000mb 36f
2:20pm 8 10 mph 1000mb 36f
2:10pm 7 9 mph 1000mb 36f
2:00pm 7 9 mph 1000mb 35f
1:50pm 7 8 mph 1000mb 35f
1:40pm 6 9 mph 1000mb 35f
1:30pm 7 9 mph 1000mb 35f
1:20pm 8 9 mph 1000.3mb 35f
1:10pm 7 8 mph 1000.7mb 35f
1:00pm 7 8 mph 1000.3mb 35f
12:50pm 6 7 mph 1000.3mb 35f
12:40pm 2 6 mph 1000.3mb 35f
12:30pm 5 6 mph 1000.3mb 35f
12:20pm 2 5 mph 1000.3mb 35f
12:10pm 2 5 mph 1000.3mb 34f
12:00pm 3 5 mph 1000.7mb 35f
11:50am 2 5 mph 1001mb 34f
11:40am 2 6 mph 1001mb 34f
11:30am 3 5 mph 1001.4mb 34f
11:20am 3 6 mph 1001.7mb 34f
11:10am 6 7 mph 1001.7mb 34f
10:00am 6 8 mph 1004.1mb 34f
9:50am 7 8 mph 1004.1mb 34f
9:40am 6 9 mph 1004.1mb 34f
9:30am 7 9 mph 1004.4mb 33f
9:20am 7 8 mph 1004.7mb 33f
9:10am 7 9 mph 1004.7mb 34f
9:00am 7 10 mph 1005.1mb 34f
8:50am 9 10 mph 1006.1mb 33f
8:40am 8 10 mph 1006.1mb 34f
8:30am 8 11 mph 1006.1mb 33f
8:20am 9 10 mph 1006.4mb 33f
8:10am 6 8 mph 1006.4mb 33f
7:00am 8 13 mph 1008.1mb 34f
6:50am 8 11 mph 1008.1mb 34f
6:40am 9 11 mph 1008.1mb 34f
6:30am 9 13 mph 1008.5mb 34f
6:20am 10 13 mph 1008.8mb 34f
6:10am 8 9 mph 1008.8mb 34f
5:00am 10 13 mph 1009.5mb 35f
4:50am 9 11 mph 1009.8mb 35f
4:40am 9 13 mph 1010.2mb 35f
4:30am 11 14 mph 1010.2mb 35f
4:20am 11 15 mph 1010.2mb 35f
4:10am 10 13 mph 1010.2mb 35f
4:00am 10 14 mph 1010.5mb 35f
3:50am 11 14 mph 1010.5mb 35f
3:40am 9 13 mph 1010.8mb 35f
3:30am 11 14 mph 1011.2mb 35f
3:20am 13 14 mph 1011.2mb 35f
3:10am 11 13 mph 1011.5mb 35f
3:00am 10 14 mph 1011.9mb 35f
2:50am 11 13 mph 1012.2mb 34f
2:40am 11 14 mph 1012.5mb 35f
2:30am 10 13 mph 1012.9mb 35f
2:20am 9 13 mph 1013.5mb 35f
2:10am 9 13 mph 1013.5mb 35f
2:00am 10 13 mph 1013.5mb 35f
1:50am 11 14 mph 1013.5mb 35f
1:40am 9 14 mph 1013.5mb 35f
1:30am 11 13 mph 1013.5mb 35f
1:20am 10 11 mph 1013.5mb 35f
1:10am 9 10 mph 1013.9mb 35f